首页
METAR-TAF:

METAR-TAF

机场 :

Sawyer County Airport

Hayward, 威斯康辛州, 美国

纬度: 46-01-14N, 经度: 091-27-01W, 海拔: 370米

当前天气观测

该预报发布于38分钟前的07:53 UTC
静风
温度 7°C
湿度 93%
气压 1015 hPa
能見度: 16.1公里
天空无云

METAR: KHYR 190753Z AUTO 00000KT 10SM CLR 07/06 A2996 RMK AO2 SLP146 T00720061

时间: 03:31 (08:31 UTC)

预报

该预报发布于1小时和33分钟前的06:58 UTC
预报有效从19日的 07点(UTC)到 20日的 06点(UTC)
风速2节,风向多变
能見度: 8.0公里
天空无云
轻雾
短暂存在
从 19日的 07点(UTC)到 19日的 11点(UTC)
能見度: 1.6公里
轻雾
从 19日的 1200点(UTC)
风速5节,风向西南
能見度: 10公里
天空无云
从 19日的 1600点(UTC)
风速7节,风向西南,有时为15节阵风
能見度: 10公里
天空无云
从 20日的 0000点(UTC)
风速5节,风向南转西南
能見度: 10公里
天空无云

TAF: KHYR 190658Z 1907/2006 VRB02KT 5SM BR SKC TEMPO 1907/1911 1SM BR FM191200 22005KT P6SM SKC FM191600 22007G15KT P6SM SKC FM200000 20005KT P6SM SKC

超过4000个机场的气象观测和天气预报(METAR&TAF报告)。

可查询的气象台以黄色和红色小点在地图上表示。

将鼠标移到小点上方,可查看气象台名称。

然后点击查看天气观测和预报。

如需切换地图:点击带黑十字的绿色按钮放大地图;点击带横线的绿色按钮缩小地图;或者点击绿色箭头查看邻近地区的地图。


METAR-TAF: